Time;durP1;ratioP1;P1;durP2;ratioP2;P2;SDS_P1;SDS_P2;PMS_P1;PMS_P2;Temp;Humidity;BMP_temperature;BMP_pressure;BME280_temperature;BME280_humidity;BME280_pressure;Samples;Min_cycle;Max_cycle;Signal;HPM_P1;HPM_P2
2022/04/03 00:00:58;;;;;;;7.45;4.00;;;2.20;95.50;;;;;;2088288;28;20032;-72
2022/04/03 00:02:00;;;;;;;7.53;4.00;;;2.20;95.80;;;;;;2088599;28;20048;-72
2022/04/03 00:03:04;;;;;;;5.75;3.92;;;2.20;96.20;;;;;;2079465;28;20034;-73
2022/04/03 00:04:05;;;;;;;5.75;3.78;;;2.20;96.20;;;;;;2079375;28;20038;-72
2022/04/03 00:05:06;;;;;;;7.80;3.65;;;2.20;95.90;;;;;;2088634;28;20040;-74
2022/04/03 00:06:07;;;;;;;6.32;4.03;;;2.20;96.00;;;;;;2089206;28;20055;-73
2022/04/03 00:07:07;;;;;;;6.60;4.03;;;2.20;95.90;;;;;;2089132;28;20044;-75
2022/04/03 00:08:09;;;;;;;5.20;3.75;;;2.20;95.60;;;;;;2087877;28;20194;-73
2022/04/03 00:09:09;;;;;;;7.43;3.65;;;2.20;95.40;;;;;;2088577;28;20119;-73
2022/04/03 00:10:14;;;;;;;8.38;3.85;;;2.20;95.30;;;;;;2088244;28;20037;-73
2022/04/03 00:11:16;;;;;;;5.80;3.78;;;2.10;95.50;;;;;;2080033;28;20040;-73
2022/04/03 00:12:16;;;;;;;8.00;3.80;;;2.10;95.50;;;;;;2072467;28;20030;-73
2022/04/03 00:13:17;;;;;;;6.55;3.70;;;2.10;95.60;;;;;;2079107;28;20060;-72
2022/04/03 00:14:18;;;;;;;6.63;3.67;;;2.10;95.60;;;;;;2087475;28;20053;-73
2022/04/03 00:15:18;;;;;;;5.80;3.78;;;2.20;95.50;;;;;;2088283;28;20037;-73
2022/04/03 00:16:19;;;;;;;7.85;3.65;;;2.20;95.70;;;;;;2087554;28;20033;-72
2022/04/03 00:17:19;;;;;;;5.53;3.60;;;2.20;95.10;;;;;;2087677;28;20099;-72
2022/04/03 00:18:20;;;;;;;8.15;3.80;;;2.20;95.40;;;;;;2087038;28;20032;-73
2022/04/03 00:19:22;;;;;;;7.60;3.60;;;2.20;95.20;;;;;;2087576;28;20025;-73
2022/04/03 00:20:23;;;;;;;8.38;4.00;;;2.10;95.70;;;;;;2087892;28;20112;-72
2022/04/03 00:21:24;;;;;;;7.03;3.92;;;2.10;95.60;;;;;;2087382;28;20017;-72
2022/04/03 00:22:24;;;;;;;5.40;3.92;;;2.10;95.90;;;;;;2087331;28;20036;-73
2022/04/03 00:23:25;;;;;;;4.78;3.50;;;2.10;95.50;;;;;;2087443;28;20041;-72
2022/04/03 00:24:29;;;;;;;6.57;3.40;;;2.10;95.20;;;;;;2087407;28;20112;-73
2022/04/03 00:25:30;;;;;;;8.20;3.63;;;2.10;95.50;;;;;;2087918;28;20061;-73
2022/04/03 00:26:31;;;;;;;4.97;3.67;;;2.10;95.60;;;;;;2087799;28;20032;-75
2022/04/03 00:27:32;;;;;;;5.90;3.70;;;2.10;95.40;;;;;;2087980;28;20040;-75
2022/04/03 00:28:32;;;;;;;5.57;3.63;;;2.10;95.30;;;;;;2087773;28;20040;-74
2022/04/03 00:29:33;;;;;;;5.38;3.70;;;2.10;95.40;;;;;;2087261;28;20049;-74
2022/04/03 00:30:34;;;;;;;6.20;3.80;;;2.10;95.50;;;;;;2087122;28;20033;-73
2022/04/03 00:31:35;;;;;;;5.53;3.53;;;2.10;95.40;;;;;;2087219;28;20021;-73
2022/04/03 00:32:36;;;;;;;7.65;3.78;;;2.10;95.10;;;;;;2087334;28;20599;-73
2022/04/03 00:33:37;;;;;;;6.25;3.60;;;2.10;95.00;;;;;;2087313;28;20037;-72
2022/04/03 00:34:37;;;;;;;8.95;3.80;;;2.10;95.20;;;;;;2087255;28;20024;-73
2022/04/03 00:35:38;;;;;;;6.47;3.80;;;2.10;95.00;;;;;;2087760;28;20120;-74
2022/04/03 00:36:40;;;;;;;6.22;3.85;;;2.10;94.80;;;;;;2079454;28;20532;-74
2022/04/03 00:37:41;;;;;;;6.47;3.63;;;2.10;94.60;;;;;;2079252;28;20029;-73
2022/04/03 00:38:41;;;;;;;6.25;3.90;;;2.00;94.30;;;;;;2087487;28;20032;-73
2022/04/03 00:39:42;;;;;;;5.68;3.67;;;2.00;94.30;;;;;;2087481;28;20033;-71
2022/04/03 00:40:45;;;;;;;7.47;3.97;;;2.00;94.30;;;;;;2087246;28;20032;-73
2022/04/03 00:41:46;;;;;;;6.40;3.78;;;2.00;94.30;;;;;;2087566;28;20033;-73
2022/04/03 00:42:46;;;;;;;7.75;3.83;;;2.00;94.00;;;;;;2087932;28;20064;-73
2022/04/03 00:43:48;;;;;;;6.07;3.60;;;2.00;94.20;;;;;;2088325;28;20451;-73
2022/04/03 00:44:48;;;;;;;8.60;3.78;;;1.90;94.40;;;;;;2088868;28;20037;-72
2022/04/03 00:45:49;;;;;;;7.47;3.88;;;2.00;94.60;;;;;;2088100;28;20035;-72
2022/04/03 00:46:50;;;;;;;6.40;3.95;;;2.00;94.60;;;;;;2087712;28;20521;-71
2022/04/03 00:47:53;;;;;;;8.50;3.60;;;2.00;94.60;;;;;;2088029;28;20457;-72
2022/04/03 00:48:56;;;;;;;5.60;3.80;;;2.00;94.10;;;;;;2087485;28;20031;-74
2022/04/03 00:49:58;;;;;;;6.05;3.70;;;2.00;94.00;;;;;;2087705;28;20021;-72
2022/04/03 00:50:58;;;;;;;7.18;3.72;;;2.00;94.00;;;;;;2087724;28;20055;-72
2022/04/03 00:51:59;;;;;;;5.65;3.80;;;2.00;94.10;;;;;;2087851;28;20502;-73
2022/04/03 00:53:00;;;;;;;8.52;3.92;;;1.90;94.20;;;;;;2087065;28;20075;-72
2022/04/03 00:54:01;;;;;;;9.18;4.30;;;2.00;94.10;;;;;;2087181;28;20079;-73
2022/04/03 00:55:03;;;;;;;6.40;3.75;;;1.90;94.00;;;;;;2088018;28;20714;-72
2022/04/03 00:56:05;;;;;;;8.15;3.95;;;2.00;93.70;;;;;;2087993;28;20049;-72
2022/04/03 00:57:07;;;;;;;6.78;3.63;;;2.00;93.10;;;;;;2088255;28;20040;-74
2022/04/03 00:58:12;;;;;;;6.22;3.63;;;2.00;92.80;;;;;;2088633;28;20456;-71
2022/04/03 00:59:14;;;;;;;7.10;3.55;;;2.00;92.90;;;;;;2088367;28;20040;-72
2022/04/03 01:00:15;;;;;;;6.65;3.75;;;2.00;92.90;;;;;;2089385;28;20087;-73
2022/04/03 01:01:15;;;;;;;6.47;3.80;;;2.00;93.20;;;;;;2089357;28;20110;-73
2022/04/03 01:02:17;;;;;;;5.38;3.45;;;2.00;93.40;;;;;;2090032;28;20279;-73
2022/04/03 01:03:17;;;;;;;5.32;3.75;;;2.00;93.60;;;;;;2092083;28;20039;-72
2022/04/03 01:04:18;;;;;;;5.07;3.53;;;2.00;93.70;;;;;;2091222;28;20033;-72
2022/04/03 01:05:18;;;;;;;5.07;3.42;;;1.90;94.00;;;;;;2091870;28;20116;-72
2022/04/03 01:06:19;;;;;;;5.05;3.25;;;1.90;94.20;;;;;;2092761;28;20025;-72
2022/04/03 01:07:20;;;;;;;9.05;3.60;;;1.80;94.30;;;;;;2090631;28;20044;-72
2022/04/03 01:08:23;;;;;;;5.63;3.63;;;1.90;94.30;;;;;;2087908;28;20506;-72
2022/04/03 01:09:24;;;;;;;6.93;3.45;;;1.80;93.90;;;;;;2087276;28;20440;-72
2022/04/03 01:10:24;;;;;;;5.03;3.47;;;1.80;94.60;;;;;;2086982;28;20082;-73
2022/04/03 01:11:26;;;;;;;5.40;3.45;;;1.80;94.40;;;;;;2087817;28;20128;-73
2022/04/03 01:12:27;;;;;;;7.18;3.72;;;1.70;94.20;;;;;;2087174;28;20541;-71
2022/04/03 01:13:28;;;;;;;5.28;3.47;;;1.70;94.20;;;;;;2079020;28;20424;-71
2022/04/03 01:14:40;;;;;;;5.97;3.40;;;1.70;93.70;;;;;;2079078;28;20052;-71
2022/04/03 01:15:41;;;;;;;5.93;3.70;;;1.80;93.70;;;;;;2088863;28;20048;-72
2022/04/03 01:16:41;;;;;;;6.35;3.47;;;1.80;94.10;;;;;;2089073;28;20036;-71
2022/04/03 01:17:43;;;;;;;6.45;3.60;;;1.70;94.10;;;;;;2089249;28;20028;-71
2022/04/03 01:18:44;;;;;;;7.90;3.63;;;1.70;94.20;;;;;;2089120;28;20063;-73
2022/04/03 01:19:44;;;;;;;5.78;3.72;;;1.70;94.00;;;;;;2089510;28;20033;-73
2022/04/03 01:20:45;;;;;;;6.47;3.47;;;1.70;93.80;;;;;;2088614;28;20094;-73
2022/04/03 01:21:46;;;;;;;6.20;3.70;;;1.70;93.70;;;;;;2088745;28;20037;-73
2022/04/03 01:22:46;;;;;;;5.30;3.40;;;1.70;93.40;;;;;;2089379;28;20028;-73
2022/04/03 01:23:47;;;;;;;5.85;3.60;;;1.70;93.20;;;;;;2089295;28;20553;-74
2022/04/03 01:24:54;;;;;;;6.45;3.65;;;1.70;92.70;;;;;;2089213;28;20458;-74
2022/04/03 01:25:55;;;;;;;6.90;3.65;;;1.60;92.80;;;;;;2089412;28;20040;-73
2022/04/03 01:26:56;;;;;;;5.25;3.35;;;1.60;92.80;;;;;;2089313;28;20313;-73
2022/04/03 01:27:57;;;;;;;4.75;3.30;;;1.50;92.80;;;;;;2089386;28;20443;-73
2022/04/03 01:28:58;;;;;;;6.65;3.45;;;1.50;93.00;;;;;;2088927;28;20037;-72
2022/04/03 01:29:59;;;;;;;5.53;3.50;;;1.50;93.00;;;;;;2089266;28;20056;-72
2022/04/03 01:30:59;;;;;;;5.78;3.35;;;1.50;93.00;;;;;;2089167;28;20137;-72
2022/04/03 01:32:00;;;;;;;6.20;3.78;;;1.50;93.20;;;;;;2089315;28;20027;-72
2022/04/03 01:33:02;;;;;;;8.38;3.60;;;1.60;93.00;;;;;;2089467;28;20476;-74
2022/04/03 01:34:03;;;;;;;6.05;3.35;;;1.60;93.00;;;;;;2089289;28;20021;-73
2022/04/03 01:35:05;;;;;;;7.82;3.75;;;1.60;92.80;;;;;;2089367;28;20114;-74
2022/04/03 01:36:05;;;;;;;5.63;3.50;;;1.60;92.50;;;;;;2088565;28;20029;-73
2022/04/03 01:37:06;;;;;;;4.55;3.30;;;1.60;92.60;;;;;;2088553;28;20032;-73
2022/04/03 01:38:07;;;;;;;6.43;3.45;;;1.60;92.70;;;;;;2089265;28;20378;-73
2022/04/03 01:39:10;;;;;;;8.23;3.75;;;1.60;92.80;;;;;;2088585;28;20344;-72
2022/04/03 01:40:12;;;;;;;7.75;4.00;;;1.60;92.70;;;;;;2088947;28;20029;-72
2022/04/03 01:41:13;;;;;;;5.50;3.50;;;1.60;92.70;;;;;;2088805;28;20032;-71
2022/04/03 01:42:13;;;;;;;5.78;3.20;;;1.60;92.80;;;;;;2088617;28;20056;-72
2022/04/03 01:43:14;;;;;;;5.80;3.50;;;1.60;93.00;;;;;;2089418;28;20116;-73
2022/04/03 01:44:15;;;;;;;5.55;3.63;;;1.60;93.00;;;;;;2088552;28;20060;-72
2022/04/03 01:45:16;;;;;;;5.20;3.50;;;1.60;93.10;;;;;;2088928;28;20036;-72
2022/04/03 01:46:17;;;;;;;7.70;3.55;;;1.60;92.90;;;;;;2089366;28;20037;-72
2022/04/03 01:47:17;;;;;;;5.93;3.45;;;1.50;93.00;;;;;;2088662;28;20135;-73
2022/04/03 01:48:18;;;;;;;7.05;3.63;;;1.50;93.00;;;;;;2080565;28;20037;-72
2022/04/03 01:49:18;;;;;;;7.30;3.70;;;1.50;93.20;;;;;;2088730;28;20079;-72
2022/04/03 01:50:19;;;;;;;5.35;3.47;;;1.50;93.20;;;;;;2089396;28;20044;-72
2022/04/03 01:51:20;;;;;;;6.68;3.75;;;1.50;93.20;;;;;;2090013;28;20033;-72
2022/04/03 01:52:21;;;;;;;6.07;3.63;;;1.40;93.20;;;;;;2080952;28;20022;-73
2022/04/03 01:53:22;;;;;;;4.78;3.50;;;1.40;93.20;;;;;;2081020;28;20120;-72
2022/04/03 01:54:22;;;;;;;5.95;3.50;;;1.30;93.30;;;;;;2089517;28;20483;-73
2022/04/03 01:55:24;;;;;;;5.65;3.40;;;1.30;93.50;;;;;;2089590;28;20021;-73
2022/04/03 01:56:28;;;;;;;10.13;3.50;;;1.30;93.20;;;;;;2088784;28;20488;-73
2022/04/03 01:57:28;;;;;;;5.82;3.70;;;1.30;92.80;;;;;;2088866;28;20028;-73
2022/04/03 01:58:30;;;;;;;6.70;3.33;;;1.30;93.20;;;;;;2089339;28;20456;-72
2022/04/03 01:59:31;;;;;;;5.35;3.10;;;1.20;93.50;;;;;;2089284;28;20029;-73
2022/04/03 02:00:32;;;;;;;7.25;3.83;;;1.20;92.90;;;;;;2080165;28;20075;-73
2022/04/03 02:01:34;;;;;;;5.43;3.42;;;1.20;92.40;;;;;;2080110;28;20026;-73
2022/04/03 02:02:34;;;;;;;5.55;3.25;;;1.30;91.90;;;;;;2089298;28;20383;-73
2022/04/03 02:03:35;;;;;;;5.85;3.30;;;1.30;91.70;;;;;;2089008;28;20025;-73
2022/04/03 02:04:35;;;;;;;7.30;3.33;;;1.20;91.30;;;;;;2089668;28;20550;-73
2022/04/03 02:05:36;;;;;;;5.88;3.38;;;1.20;91.50;;;;;;2090000;28;20044;-72
2022/04/03 02:06:37;;;;;;;5.90;3.40;;;1.30;91.50;;;;;;2089675;28;20033;-72
2022/04/03 02:07:38;;;;;;;4.57;3.05;;;1.30;91.40;;;;;;2089906;28;20025;-73
2022/04/03 02:08:39;;;;;;;4.60;3.20;;;1.30;91.50;;;;;;2089829;28;20108;-73
2022/04/03 02:09:40;;;;;;;5.30;3.20;;;1.20;91.20;;;;;;2089929;28;20037;-73
2022/04/03 02:10:41;;;;;;;5.35;3.40;;;1.20;91.10;;;;;;2089675;28;20061;-73
2022/04/03 02:11:42;;;;;;;4.97;3.17;;;1.20;91.20;;;;;;2089913;28;20029;-73
2022/04/03 02:12:43;;;;;;;6.38;3.53;;;1.20;91.20;;;;;;2089900;28;20450;-73
2022/04/03 02:13:43;;;;;;;7.20;3.80;;;1.30;91.30;;;;;;2088979;28;20139;-73
2022/04/03 02:14:44;;;;;;;5.25;3.25;;;1.30;91.60;;;;;;2089212;28;20688;-72
2022/04/03 02:15:46;;;;;;;6.47;3.55;;;1.30;91.90;;;;;;2089841;28;20040;-73
2022/04/03 02:16:46;;;;;;;7.72;3.58;;;1.30;92.30;;;;;;2089749;28;20029;-73
2022/04/03 02:17:47;;;;;;;7.05;3.50;;;1.20;92.50;;;;;;2089786;28;20111;-73
2022/04/03 02:18:48;;;;;;;5.55;3.45;;;1.20;92.90;;;;;;2089338;28;20033;-73
2022/04/03 02:19:49;;;;;;;5.38;3.42;;;1.20;93.20;;;;;;2089638;28;20075;-73
2022/04/03 02:20:50;;;;;;;4.85;3.30;;;1.20;93.10;;;;;;2089219;28;20553;-72
2022/04/03 02:21:50;;;;;;;7.30;3.28;;;1.10;93.30;;;;;;2088707;28;20063;-72
2022/04/03 02:22:51;;;;;;;6.05;3.60;;;1.10;93.40;;;;;;2089095;28;20029;-72
2022/04/03 02:23:51;;;;;;;5.05;3.50;;;1.10;93.60;;;;;;2088851;28;20795;-72
2022/04/03 02:24:52;;;;;;;5.68;3.40;;;1.10;93.80;;;;;;2088857;28;20033;-72
2022/04/03 02:25:53;;;;;;;6.35;3.80;;;1.10;93.90;;;;;;2088822;28;20035;-72
2022/04/03 02:26:54;;;;;;;6.43;3.40;;;1.10;94.10;;;;;;2087048;28;20067;-72
2022/04/03 02:27:54;;;;;;;8.10;3.65;;;1.00;94.10;;;;;;2088125;28;20115;-72
2022/04/03 02:28:55;;;;;;;6.75;3.58;;;1.00;94.30;;;;;;2088681;28;20037;-73
2022/04/03 02:29:55;;;;;;;7.93;3.60;;;0.90;94.20;;;;;;2088045;28;20033;-73
2022/04/03 02:30:56;;;;;;;5.93;3.53;;;0.90;94.60;;;;;;2087964;28;20033;-73
2022/04/03 02:31:59;;;;;;;5.88;3.55;;;0.90;94.90;;;;;;2088795;28;20017;-72
2022/04/03 02:33:00;;;;;;;8.85;3.70;;;0.90;94.70;;;;;;2088863;28;20436;-73
2022/04/03 02:34:01;;;;;;;5.15;3.55;;;0.90;94.50;;;;;;2088597;28;20032;-73
2022/04/03 02:35:02;;;;;;;6.20;3.70;;;0.90;94.60;;;;;;2088621;28;20017;-73
2022/04/03 02:36:02;;;;;;;5.35;3.47;;;0.90;94.70;;;;;;2088537;28;20472;-74
2022/04/03 02:37:03;;;;;;;5.38;3.65;;;0.90;94.80;;;;;;2088776;28;20013;-73
2022/04/03 02:38:04;;;;;;;5.57;3.30;;;0.80;95.30;;;;;;2087797;28;20071;-74
2022/04/03 02:39:06;;;;;;;6.10;3.60;;;0.80;95.50;;;;;;2087989;28;20028;-74
2022/04/03 02:40:10;;;;;;;7.38;3.30;;;0.70;95.90;;;;;;2088258;28;20037;-74
2022/04/03 02:41:12;;;;;;;5.85;3.60;;;0.70;96.20;;;;;;2088380;28;20028;-75
2022/04/03 02:42:12;;;;;;;7.28;3.70;;;0.70;96.60;;;;;;2089819;28;20025;-74
2022/04/03 02:43:13;;;;;;;6.30;3.42;;;0.60;96.80;;;;;;2089435;28;20068;-74
2022/04/03 02:44:15;;;;;;;6.18;3.65;;;0.70;97.00;;;;;;2089705;28;20094;-73
2022/04/03 02:45:15;;;;;;;6.47;3.60;;;0.70;97.20;;;;;;2089967;28;20032;-73
2022/04/03 02:46:16;;;;;;;6.30;3.67;;;0.60;97.60;;;;;;2081620;28;20037;-73
2022/04/03 02:47:17;;;;;;;5.80;3.80;;;0.50;97.80;;;;;;2089946;28;20060;-74
2022/04/03 02:48:17;;;;;;;7.03;3.83;;;0.50;98.20;;;;;;2081584;28;20035;-73
2022/04/03 02:49:18;;;;;;;5.72;3.80;;;0.50;98.60;;;;;;2090496;28;20039;-74
2022/04/03 02:50:24;;;;;;;5.88;3.92;;;0.40;98.90;;;;;;2090490;28;20021;-72
2022/04/03 02:51:24;;;;;;;7.57;3.95;;;0.40;99.20;;;;;;2080776;28;20087;-72
2022/04/03 02:52:25;;;;;;;5.28;3.60;;;0.40;99.30;;;;;;2079988;28;20640;-74
2022/04/03 02:53:26;;;;;;;5.43;3.65;;;0.40;99.60;;;;;;2088762;28;20082;-74
2022/04/03 02:54:26;;;;;;;6.28;3.97;;;0.40;99.70;;;;;;2089050;28;20140;-73
2022/04/03 02:55:27;;;;;;;9.93;4.20;;;0.30;99.90;;;;;;2088620;28;20435;-73
2022/04/03 02:56:28;;;;;;;6.57;3.97;;;0.30;99.90;;;;;;2088598;28;20029;-73
2022/04/03 02:57:28;;;;;;;6.60;3.85;;;0.30;99.90;;;;;;2088556;28;20041;-72
2022/04/03 02:58:29;;;;;;;7.15;4.03;;;0.30;99.90;;;;;;2088505;28;20112;-72
2022/04/03 02:59:29;;;;;;;8.25;4.00;;;0.30;99.90;;;;;;2088594;28;20100;-72
2022/04/03 03:00:32;;;;;;;6.72;4.32;;;0.20;99.90;;;;;;2087775;28;20475;-72
2022/04/03 03:01:33;;;;;;;8.05;4.10;;;0.20;99.90;;;;;;2087938;28;20025;-72
2022/04/03 03:02:33;;;;;;;7.55;4.20;;;0.10;99.90;;;;;;2088542;28;20116;-73
2022/04/03 03:03:34;;;;;;;7.80;3.78;;;0.10;99.90;;;;;;2088602;28;20032;-72
2022/04/03 03:04:35;;;;;;;7.00;4.00;;;0.10;99.90;;;;;;2088462;28;20039;-73
2022/04/03 03:05:36;;;;;;;7.43;4.03;;;0.10;99.90;;;;;;2088503;28;20511;-72
2022/04/03 03:06:37;;;;;;;6.70;4.15;;;0.00;99.90;;;;;;2087918;28;20337;-72
2022/04/03 03:07:42;;;;;;;8.00;4.10;;;0.00;99.90;;;;;;2087812;28;20025;-73
2022/04/03 03:08:43;;;;;;;5.90;4.18;;;0.00;99.90;;;;;;2087681;28;20029;-71
2022/04/03 03:09:44;;;;;;;8.15;4.05;;;0.10;99.90;;;;;;2087714;28;20075;-72
2022/04/03 03:10:45;;;;;;;7.32;4.05;;;0.10;99.90;;;;;;2088053;28;20048;-72
2022/04/03 03:11:46;;;;;;;6.68;4.20;;;0.00;99.90;;;;;;2087619;28;20119;-71
2022/04/03 03:12:46;;;;;;;7.25;3.80;;;-0.10;99.90;;;;;;2079390;28;20381;-74
2022/04/03 03:13:47;;;;;;;7.97;4.20;;;-0.10;99.90;;;;;;2087860;28;20025;-72
2022/04/03 03:14:48;;;;;;;6.88;4.18;;;-0.10;99.90;;;;;;2088518;28;20257;-74
2022/04/03 03:15:49;;;;;;;6.50;4.07;;;-0.20;99.90;;;;;;2088628;28;20029;-73
2022/04/03 03:16:50;;;;;;;7.80;4.15;;;-0.20;99.90;;;;;;2088367;28;20083;-73
2022/04/03 03:17:51;;;;;;;10.20;4.63;;;-0.20;99.90;;;;;;2088523;28;20033;-73
2022/04/03 03:18:51;;;;;;;8.05;4.07;;;-0.20;99.90;;;;;;2088131;28;20060;-72
2022/04/03 03:19:52;;;;;;;5.70;3.92;;;-0.20;99.90;;;;;;2087674;28;20549;-72
2022/04/03 03:20:52;;;;;;;7.13;4.35;;;-0.20;99.90;;;;;;2087571;28;20028;-73
2022/04/03 03:21:53;;;;;;;7.75;4.28;;;-0.20;99.90;;;;;;2087786;28;20025;-74
2022/04/03 03:22:54;;;;;;;7.63;4.50;;;-0.20;99.90;;;;;;2088192;28;20392;-73
2022/04/03 03:23:54;;;;;;;5.35;4.00;;;-0.30;99.90;;;;;;2087368;28;20443;-74
2022/04/03 03:24:55;;;;;;;9.18;4.65;;;-0.30;99.90;;;;;;2087620;28;20137;-74
2022/04/03 03:25:55;;;;;;;6.22;4.40;;;-0.30;99.90;;;;;;2088325;28;20040;-74
2022/04/03 03:26:56;;;;;;;7.55;4.80;;;-0.30;99.90;;;;;;2087662;28;20064;-74
2022/04/03 03:27:57;;;;;;;6.22;4.38;;;-0.40;99.90;;;;;;2087818;28;20029;-75
2022/04/03 03:28:57;;;;;;;10.30;4.70;;;-0.40;99.90;;;;;;2087976;28;20037;-74
2022/04/03 03:29:58;;;;;;;8.65;4.88;;;-0.40;99.90;;;;;;2087391;28;20029;-75
2022/04/03 03:30:59;;;;;;;8.63;4.68;;;-0.40;99.90;;;;;;2087591;28;20029;-74
2022/04/03 03:31:59;;;;;;;8.57;4.60;;;-0.40;99.90;;;;;;2088340;28;20025;-74
2022/04/03 03:33:00;;;;;;;7.93;4.40;;;-0.40;99.90;;;;;;2088320;28;20025;-74
2022/04/03 03:34:01;;;;;;;7.63;4.82;;;-0.40;99.90;;;;;;2088551;28;20048;-76
2022/04/03 03:35:04;;;;;;;8.77;4.50;;;-0.50;99.90;;;;;;2088265;28;20353;-73
2022/04/03 03:36:05;;;;;;;8.90;4.50;;;-0.50;99.90;;;;;;2088078;28;20040;-73
2022/04/03 03:37:06;;;;;;;5.57;4.25;;;-0.50;99.90;;;;;;2088225;28;20085;-74
2022/04/03 03:38:09;;;;;;;7.82;4.68;;;-0.50;99.90;;;;;;2087054;28;20492;-73
2022/04/03 03:39:12;;;;;;;8.43;4.47;;;-0.50;99.90;;;;;;2087434;28;20032;-72
2022/04/03 03:40:14;;;;;;;9.73;4.72;;;-0.50;99.90;;;;;;2088113;28;20029;-73
2022/04/03 03:41:14;;;;;;;8.32;4.47;;;-0.50;99.90;;;;;;2088158;28;20078;-73
2022/04/03 03:42:15;;;;;;;6.20;4.32;;;-0.60;99.90;;;;;;2088129;28;20033;-73
2022/04/03 03:43:16;;;;;;;6.70;4.38;;;-0.60;99.90;;;;;;2088245;28;20029;-73
2022/04/03 03:44:16;;;;;;;8.63;4.72;;;-0.60;99.90;;;;;;2088056;28;20067;-73
2022/04/03 03:45:17;;;;;;;9.77;4.75;;;-0.70;99.90;;;;;;2087528;28;20100;-73
2022/04/03 03:46:18;;;;;;;8.45;4.72;;;-0.70;99.90;;;;;;2087309;28;20083;-73
2022/04/03 03:47:19;;;;;;;8.35;4.65;;;-0.70;99.90;;;;;;2088093;28;20032;-73
2022/04/03 03:48:20;;;;;;;8.18;4.60;;;-0.70;99.90;;;;;;2087668;28;20071;-73
2022/04/03 03:49:21;;;;;;;7.85;4.43;;;-0.70;99.90;;;;;;2088254;28;20403;-74
2022/04/03 03:50:23;;;;;;;6.82;4.60;;;-0.70;99.90;;;;;;2088097;28;20036;-73
2022/04/03 03:51:23;;;;;;;6.28;4.40;;;-0.70;99.90;;;;;;2087364;28;20543;-73
2022/04/03 03:52:24;;;;;;;8.27;5.30;;;-0.70;99.90;;;;;;2078991;28;20500;-74
2022/04/03 03:53:25;;;;;;;7.50;4.60;;;-0.70;99.90;;;;;;2087305;28;20021;-73
2022/04/03 03:54:25;;;;;;;9.10;5.10;;;-0.70;99.90;;;;;;2087889;28;20498;-73
2022/04/03 03:55:26;;;;;;;10.30;5.00;;;-0.70;99.90;;;;;;2088054;28;20052;-73
2022/04/03 03:56:27;;;;;;;7.50;5.03;;;-0.80;99.90;;;;;;2087940;28;20107;-73
2022/04/03 03:57:27;;;;;;;7.25;4.78;;;-0.80;99.90;;;;;;2087804;28;20384;-73
2022/04/03 03:58:28;;;;;;;7.97;5.38;;;-0.80;99.90;;;;;;2088054;28;20346;-74
2022/04/03 03:59:28;;;;;;;7.30;4.80;;;-0.80;99.90;;;;;;2087244;28;20060;-73
2022/04/03 04:00:29;;;;;;;7.97;4.80;;;-0.80;99.90;;;;;;2087421;28;20049;-73
2022/04/03 04:01:30;;;;;;;7.97;5.07;;;-0.80;99.90;;;;;;2088171;28;20029;-72
2022/04/03 04:02:30;;;;;;;9.60;5.30;;;-0.80;99.90;;;;;;2089168;28;20028;-72
2022/04/03 04:03:31;;;;;;;9.02;5.40;;;-0.80;99.90;;;;;;2087840;28;20108;-73
2022/04/03 04:04:31;;;;;;;8.68;5.25;;;-0.80;99.90;;;;;;2087525;28;20029;-72
2022/04/03 04:05:32;;;;;;;9.15;5.05;;;-0.80;99.90;;;;;;2087472;28;20435;-74
2022/04/03 04:06:33;;;;;;;10.60;5.40;;;-0.80;99.90;;;;;;2088192;28;20032;-74
2022/04/03 04:07:41;;;;;;;9.05;5.10;;;-0.80;99.90;;;;;;2088008;28;20032;-73
2022/04/03 04:08:42;;;;;;;9.30;5.30;;;-0.90;99.90;;;;;;2087200;28;20528;-73
2022/04/03 04:09:43;;;;;;;11.25;5.68;;;-0.90;99.90;;;;;;2087390;28;20021;-74
2022/04/03 04:10:43;;;;;;;10.82;5.30;;;-0.80;99.90;;;;;;2087870;28;20506;-74
2022/04/03 04:11:44;;;;;;;7.78;4.90;;;-0.80;99.90;;;;;;2087374;28;20037;-74
2022/04/03 04:12:46;;;;;;;8.07;5.32;;;-0.90;99.90;;;;;;2087264;28;20071;-73
2022/04/03 04:13:47;;;;;;;7.55;4.90;;;-0.90;99.90;;;;;;2087754;28;20037;-73
2022/04/03 04:14:47;;;;;;;8.73;5.30;;;-0.90;99.90;;;;;;2088010;28;20079;-74
2022/04/03 04:15:48;;;;;;;8.85;5.15;;;-0.90;99.90;;;;;;2093285;28;20112;-74
2022/04/03 04:16:48;;;;;;;8.48;5.18;;;-0.90;99.90;;;;;;2093277;28;20025;-74
2022/04/03 04:17:52;;;;;;;9.07;5.15;;;-0.90;99.90;;;;;;2089232;28;20114;-74
2022/04/03 04:18:53;;;;;;;9.60;5.47;;;-0.90;99.90;;;;;;2087034;28;20475;-74
2022/04/03 04:19:53;;;;;;;9.55;5.20;;;-0.90;99.90;;;;;;2087841;28;20079;-74
2022/04/03 04:20:54;;;;;;;10.30;5.63;;;-0.90;99.90;;;;;;2087668;28;20027;-74
2022/04/03 04:21:55;;;;;;;7.18;4.88;;;-0.90;99.90;;;;;;2087192;28;20095;-74
2022/04/03 04:22:56;;;;;;;8.57;5.32;;;-0.90;99.90;;;;;;2079166;28;20505;-74
2022/04/03 04:23:57;;;;;;;8.57;5.00;;;-0.90;99.90;;;;;;2079066;28;20029;-74
2022/04/03 04:24:57;;;;;;;8.52;4.82;;;-0.90;99.90;;;;;;2087464;28;20024;-74
2022/04/03 04:25:58;;;;;;;8.52;5.05;;;-0.90;99.90;;;;;;2087944;28;20467;-75
2022/04/03 04:26:59;;;;;;;8.02;5.28;;;-0.90;99.90;;;;;;2087457;28;20417;-72
2022/04/03 04:28:00;;;;;;;9.20;5.20;;;-1.00;99.90;;;;;;2087424;28;20100;-72
2022/04/03 04:29:01;;;;;;;8.35;5.40;;;-1.00;99.90;;;;;;2086944;28;20066;-73
2022/04/03 04:30:02;;;;;;;7.82;5.03;;;-1.00;99.90;;;;;;2079067;28;20451;-73
2022/04/03 04:31:03;;;;;;;6.60;5.30;;;-1.00;99.90;;;;;;2078909;28;20392;-73
2022/04/03 04:32:04;;;;;;;8.15;4.85;;;-1.00;99.90;;;;;;2087255;28;20115;-73
2022/04/03 04:33:06;;;;;;;7.55;5.25;;;-1.10;99.90;;;;;;2087775;28;20017;-74
2022/04/03 04:34:07;;;;;;;9.10;5.00;;;-1.00;99.90;;;;;;2087926;28;20021;-74
2022/04/03 04:35:09;;;;;;;9.68;5.60;;;-1.10;99.90;;;;;;2088058;28;20542;-74
2022/04/03 04:36:09;;;;;;;8.68;5.60;;;-1.00;99.90;;;;;;2087873;28;20075;-73
2022/04/03 04:37:10;;;;;;;8.63;5.50;;;-1.00;99.90;;;;;;2087825;28;20091;-73
2022/04/03 04:38:11;;;;;;;9.43;5.70;;;-1.10;99.90;;;;;;2086851;28;20028;-73
2022/04/03 04:39:11;;;;;;;9.43;5.80;;;-1.10;99.90;;;;;;2086961;28;20033;-72
2022/04/03 04:40:13;;;;;;;8.68;5.40;;;-1.10;99.90;;;;;;2087109;28;20550;-73
2022/04/03 04:41:13;;;;;;;8.23;5.57;;;-1.10;99.90;;;;;;2087381;28;20486;-74
2022/04/03 04:42:14;;;;;;;9.45;5.60;;;-1.10;99.90;;;;;;2078915;28;20037;-73
2022/04/03 04:43:15;;;;;;;9.23;5.63;;;-1.10;99.90;;;;;;2087241;28;20454;-74
2022/04/03 04:44:15;;;;;;;9.20;5.70;;;-1.10;99.90;;;;;;2087956;28;20059;-73
2022/04/03 04:45:16;;;;;;;9.55;5.93;;;-1.10;99.90;;;;;;2087901;28;20070;-72
2022/04/03 04:46:17;;;;;;;10.57;6.00;;;-1.10;99.90;;;;;;2087629;28;20391;-72
2022/04/03 04:47:17;;;;;;;9.80;5.70;;;-1.10;99.90;;;;;;2087959;28;20060;-73
2022/04/03 04:48:18;;;;;;;8.45;5.45;;;-1.10;99.90;;;;;;2091255;28;20060;-73
2022/04/03 04:49:18;;;;;;;9.15;5.38;;;-1.10;99.90;;;;;;2088434;28;20361;-74
2022/04/03 04:50:19;;;;;;;9.52;5.63;;;-1.10;99.90;;;;;;2087936;28;20036;-72
2022/04/03 04:51:20;;;;;;;8.63;5.93;;;-1.10;99.90;;;;;;2088682;28;20033;-73
2022/04/03 04:52:20;;;;;;;10.98;6.22;;;-1.00;99.90;;;;;;2080412;28;20040;-73
2022/04/03 04:53:21;;;;;;;9.02;6.00;;;-1.00;99.90;;;;;;2080611;28;20047;-73
2022/04/03 04:54:23;;;;;;;11.25;5.85;;;-1.00;99.90;;;;;;2088691;28;20496;-72
2022/04/03 04:55:24;;;;;;;8.85;5.85;;;-1.00;99.90;;;;;;2088906;28;20031;-74
2022/04/03 04:56:25;;;;;;;10.65;5.78;;;-1.00;99.90;;;;;;2089358;28;20037;-73
2022/04/03 04:57:26;;;;;;;9.90;5.93;;;-1.00;99.90;;;;;;2089530;28;20029;-73
2022/04/03 04:58:26;;;;;;;10.52;5.85;;;-1.00;99.90;;;;;;2089159;28;20455;-75
2022/04/03 04:59:27;;;;;;;10.25;5.90;;;-0.90;99.90;;;;;;2088433;28;20037;-73
2022/04/03 05:00:30;;;;;;;8.80;5.70;;;-0.90;99.90;;;;;;2080396;28;20068;-74
2022/04/03 05:01:31;;;;;;;10.65;6.20;;;-0.90;99.90;;;;;;2088664;28;20480;-72
2022/04/03 05:02:32;;;;;;;8.73;5.82;;;-0.90;99.90;;;;;;2089611;28;20025;-73
2022/04/03 05:03:32;;;;;;;10.68;6.32;;;-0.90;99.90;;;;;;2088821;28;20083;-73
2022/04/03 05:04:34;;;;;;;8.70;5.90;;;-0.90;99.90;;;;;;2080321;28;20127;-73
2022/04/03 05:05:35;;;;;;;9.50;5.82;;;-0.90;99.90;;;;;;2080768;28;20037;-73
2022/04/03 05:06:38;;;;;;;10.13;5.97;;;-0.80;99.90;;;;;;2089113;28;20081;-74
2022/04/03 05:07:39;;;;;;;8.95;5.75;;;-0.80;99.90;;;;;;2081179;28;20458;-73
2022/04/03 05:08:40;;;;;;;8.25;5.68;;;-0.80;99.90;;;;;;2088675;28;20028;-74
2022/04/03 05:09:41;;;;;;;10.55;6.30;;;-0.80;99.90;;;;;;2080403;28;20029;-74
2022/04/03 05:10:43;;;;;;;10.80;6.20;;;-0.80;99.90;;;;;;2080728;28;20040;-74
2022/04/03 05:11:45;;;;;;;8.50;5.90;;;-0.70;99.90;;;;;;2088773;28;20086;-72
2022/04/03 05:12:46;;;;;;;10.75;5.95;;;-0.70;99.90;;;;;;2088677;28;20037;-74
2022/04/03 05:13:47;;;;;;;8.80;5.40;;;-0.60;99.90;;;;;;2088929;28;20029;-73
2022/04/03 05:14:48;;;;;;;11.07;5.47;;;-0.50;99.90;;;;;;2088582;28;20063;-73
2022/04/03 05:15:48;;;;;;;9.57;5.70;;;-0.40;99.90;;;;;;2089490;28;20033;-73
2022/04/03 05:16:49;;;;;;;9.93;5.70;;;-0.30;99.90;;;;;;2088819;28;20024;-73
2022/04/03 05:17:50;;;;;;;9.75;5.57;;;-0.10;99.90;;;;;;2089295;28;20503;-74
2022/04/03 05:18:52;;;;;;;9.93;5.72;;;0.10;99.90;;;;;;2090058;28;20032;-74
2022/04/03 05:19:54;;;;;;;10.95;5.68;;;0.20;99.90;;;;;;2090201;28;20033;-74
2022/04/03 05:20:54;;;;;;;9.57;5.57;;;0.40;99.90;;;;;;2089699;28;20033;-74